createdAt,value
2023-01-18T00:01:13.066Z,1.96
2023-01-18T00:03:42.205Z,1.80
2023-01-18T00:06:11.527Z,2.21
2023-01-18T00:08:40.982Z,2.32
2023-01-18T00:11:10.624Z,2.26
2023-01-18T00:13:40.479Z,2.32
2023-01-18T00:16:11.486Z,2.21
2023-01-18T00:18:39.428Z,1.85
2023-01-18T00:21:09.778Z,2.00
2023-01-18T00:23:38.037Z,2.04
2023-01-18T00:26:07.760Z,1.95
2023-01-18T00:28:35.668Z,2.09
2023-01-18T00:31:10.172Z,2.06
2023-01-18T00:33:37.836Z,1.86
2023-01-18T00:36:06.547Z,1.82
2023-01-18T00:38:34.115Z,1.86
2023-01-18T00:41:01.719Z,1.92
2023-01-18T00:43:40.319Z,2.09
2023-01-18T00:46:11.170Z,2.01
2023-01-18T00:48:40.504Z,1.82
2023-01-18T00:51:10.245Z,1.98
2023-01-18T00:53:38.945Z,1.86
2023-01-18T00:56:08.689Z,1.95
2023-01-18T00:58:37.487Z,1.82
2023-01-18T01:01:06.151Z,1.62
2023-01-18T01:03:55.433Z,1.47
2023-01-18T01:06:45.396Z,1.44
2023-01-18T01:09:14.989Z,1.39
2023-01-18T01:12:04.128Z,1.25
2023-01-18T01:14:49.743Z,1.31
2023-01-18T01:17:35.470Z,1.23
2023-01-18T01:20:22.067Z,1.23
2023-01-18T01:23:07.467Z,1.08
2023-01-18T01:25:54.897Z,1.23
2023-01-18T01:28:22.618Z,1.13
2023-01-18T01:30:50.415Z,1.46
2023-01-18T01:33:18.247Z,1.35
2023-01-18T01:35:47.931Z,1.38
2023-01-18T01:38:15.529Z,1.35
2023-01-18T01:40:43.151Z,1.33
2023-01-18T01:43:14.205Z,1.26
2023-01-18T01:45:41.963Z,1.29
2023-01-18T01:48:11.570Z,1.42
2023-01-18T01:50:40.729Z,1.43
2023-01-18T01:53:11.013Z,1.27
2023-01-18T01:55:40.326Z,1.27
2023-01-18T01:58:11.440Z,1.13
2023-01-18T02:00:39.110Z,1.30
2023-01-18T02:03:10.086Z,1.56
2023-01-18T02:05:43.397Z,1.41
2023-01-18T02:08:22.571Z,1.56
2023-01-18T02:10:50.549Z,1.29
2023-01-18T02:13:20.385Z,1.18
2023-01-18T02:15:54.932Z,1.15
2023-01-18T02:18:27.214Z,1.33
2023-01-18T02:21:17.639Z,1.57
2023-01-18T02:24:21.843Z,1.54
2023-01-18T02:26:58.110Z,1.34
2023-01-18T02:29:38.591Z,1.67
2023-01-18T02:32:17.899Z,1.56
2023-01-18T02:34:50.022Z,1.43
2023-01-18T02:37:26.310Z,1.54
2023-01-18T02:40:07.635Z,1.62
2023-01-18T02:42:57.313Z,1.50
2023-01-18T02:45:50.260Z,1.26
2023-01-18T02:48:20.691Z,1.55
2023-01-18T02:50:48.394Z,1.68
2023-01-18T02:53:17.100Z,1.58
2023-01-18T02:55:51.678Z,1.72
2023-01-18T02:58:25.710Z,1.51
2023-01-18T03:01:00.741Z,1.70
2023-01-18T03:03:29.542Z,1.53
2023-01-18T03:06:01.823Z,1.53
2023-01-18T03:08:36.827Z,1.69
2023-01-18T03:11:08.707Z,1.53
2023-01-18T03:13:56.549Z,1.53
2023-01-18T03:16:27.734Z,1.57
2023-01-18T03:19:01.534Z,1.47
2023-01-18T03:21:42.136Z,1.72
2023-01-18T03:24:10.355Z,1.70
2023-01-18T03:26:42.643Z,1.67
2023-01-18T03:29:30.343Z,1.61
2023-01-18T03:32:21.436Z,1.50
2023-01-18T03:34:53.661Z,1.72
2023-01-18T03:37:24.974Z,1.64
2023-01-18T03:39:57.657Z,1.68
2023-01-18T03:42:29.121Z,1.70
2023-01-18T03:45:03.991Z,1.65
2023-01-18T03:47:33.271Z,1.76
2023-01-18T03:50:00.910Z,1.72
2023-01-18T03:52:37.583Z,1.72
2023-01-18T03:55:10.746Z,1.73
2023-01-18T03:57:44.103Z,1.69
2023-01-18T04:00:13.578Z,1.71
2023-01-18T04:02:45.155Z,1.78
2023-01-18T04:05:13.145Z,1.73
2023-01-18T04:07:40.747Z,1.76
2023-01-18T04:10:09.466Z,1.84
2023-01-18T04:12:37.238Z,1.78
2023-01-18T04:15:05.631Z,1.78
2023-01-18T04:17:33.188Z,1.73
2023-01-18T04:20:02.127Z,1.68
2023-01-18T04:22:29.724Z,1.97
2023-01-18T04:24:57.385Z,1.88
2023-01-18T04:27:26.079Z,1.91
2023-01-18T04:29:53.736Z,1.80
2023-01-18T04:32:21.291Z,1.86
2023-01-18T04:34:48.900Z,1.86
2023-01-18T04:37:17.838Z,1.83
2023-01-18T04:39:47.449Z,1.84
2023-01-18T04:42:14.977Z,2.12
2023-01-18T04:44:42.604Z,1.79
2023-01-18T04:47:10.176Z,1.86
2023-01-18T04:49:37.739Z,1.88
2023-01-18T04:52:07.178Z,1.74
2023-01-18T04:54:36.112Z,1.90
2023-01-18T04:57:03.756Z,1.66
2023-01-18T04:59:31.341Z,1.48
2023-01-18T05:01:58.924Z,1.77
2023-01-18T05:04:26.603Z,1.68
2023-01-18T05:06:54.163Z,1.62
2023-01-18T05:09:21.731Z,1.41
2023-01-18T05:11:50.634Z,1.56
2023-01-18T05:14:18.448Z,1.33
2023-01-18T05:16:46.031Z,1.45
2023-01-18T05:19:13.638Z,1.46
2023-01-18T05:21:41.206Z,1.35
2023-01-18T05:24:08.802Z,1.33
2023-01-18T05:26:36.444Z,1.37
2023-01-18T05:29:05.446Z,1.49
2023-01-18T05:31:33.102Z,1.35
2023-01-18T05:34:00.708Z,1.35
2023-01-18T05:36:28.283Z,1.50
2023-01-18T05:38:56.163Z,1.33
2023-01-18T05:41:23.761Z,1.36
2023-01-18T05:43:51.366Z,1.36
2023-01-18T05:46:20.345Z,1.29
2023-01-18T05:48:48.130Z,1.14
2023-01-18T05:51:15.724Z,1.09
2023-01-18T05:53:43.263Z,1.20
2023-01-18T05:56:11.129Z,1.05
2023-01-18T05:58:39.390Z,1.16
2023-01-18T06:01:07.745Z,1.18
2023-01-18T06:03:37.200Z,1.28
2023-01-18T06:06:04.959Z,1.16
2023-01-18T06:08:32.588Z,1.22
2023-01-18T06:11:00.890Z,1.18
2023-01-18T06:13:30.746Z,1.23
2023-01-18T06:15:59.328Z,1.10
2023-01-18T06:18:29.345Z,1.15
2023-01-18T06:21:01.284Z,1.11
2023-01-18T06:23:30.078Z,1.16
2023-01-18T06:25:57.680Z,1.05
2023-01-18T06:28:26.169Z,1.13
2023-01-18T06:30:54.880Z,1.14
2023-01-18T06:33:23.097Z,1.18
2023-01-18T06:35:50.763Z,1.20
2023-01-18T06:38:20.642Z,1.06
2023-01-18T06:40:48.365Z,1.09
2023-01-18T06:43:16.772Z,0.99
2023-01-18T06:45:44.715Z,0.96
2023-01-18T06:48:12.408Z,0.99
2023-01-18T06:50:40.004Z,1.05
2023-01-18T06:53:07.555Z,1.03
2023-01-18T06:55:36.438Z,1.02
2023-01-18T06:58:04.045Z,1.13
2023-01-18T07:00:32.244Z,1.19
2023-01-18T07:03:00.156Z,1.12
2023-01-18T07:05:28.011Z,1.13
2023-01-18T07:07:55.558Z,1.15
2023-01-18T07:10:23.138Z,1.04
2023-01-18T07:12:52.048Z,1.21
2023-01-18T07:15:22.186Z,1.16
2023-01-18T07:17:51.246Z,1.25
2023-01-18T07:20:19.915Z,1.33
2023-01-18T07:22:52.018Z,1.18
2023-01-18T07:25:20.637Z,1.26
2023-01-18T07:27:49.771Z,1.29
2023-01-18T07:30:19.337Z,1.21
2023-01-18T07:32:49.689Z,1.20
2023-01-18T07:35:18.404Z,1.12
2023-01-18T07:37:49.349Z,1.10
2023-01-18T07:40:17.885Z,1.10
2023-01-18T07:42:45.799Z,1.09
2023-01-18T07:45:13.900Z,1.06
2023-01-18T07:47:46.042Z,1.18
2023-01-18T07:50:14.263Z,1.28
2023-01-18T07:52:41.861Z,1.02
2023-01-18T07:55:10.167Z,1.04
2023-01-18T07:57:38.110Z,1.00
2023-01-18T08:00:07.726Z,0.95
2023-01-18T08:02:35.460Z,0.95
2023-01-18T08:05:04.779Z,0.98
2023-01-18T08:07:33.234Z,1.00
2023-01-18T08:10:00.792Z,1.00
2023-01-18T08:12:28.495Z,0.99
2023-01-18T08:14:56.120Z,1.03
2023-01-18T08:17:23.747Z,0.99
2023-01-18T08:19:51.373Z,0.99
2023-01-18T08:22:20.270Z,1.00
2023-01-18T08:24:47.809Z,1.07
2023-01-18T08:27:16.655Z,1.17
2023-01-18T08:29:44.244Z,1.20
2023-01-18T08:32:11.822Z,1.10
2023-01-18T08:34:39.659Z,1.19
2023-01-18T08:37:07.245Z,1.18
2023-01-18T08:39:36.148Z,1.13
2023-01-18T08:42:03.719Z,1.25
2023-01-18T08:44:31.327Z,1.29
2023-01-18T08:46:58.883Z,1.21
2023-01-18T08:49:27.497Z,1.25
2023-01-18T08:51:55.033Z,1.31
2023-01-18T08:54:22.721Z,1.24
2023-01-18T08:56:52.377Z,1.35
2023-01-18T08:59:20.470Z,1.36
2023-01-18T09:01:48.175Z,1.38
2023-01-18T09:04:15.851Z,1.46
2023-01-18T09:06:44.591Z,1.53
2023-01-18T09:09:12.885Z,1.45
2023-01-18T09:11:40.518Z,1.48
2023-01-18T09:14:09.463Z,1.47
2023-01-18T09:16:36.995Z,1.36
2023-01-18T09:19:06.429Z,1.45
2023-01-18T09:21:34.355Z,1.57
2023-01-18T09:24:02.098Z,1.60
2023-01-18T09:26:30.441Z,1.60
2023-01-18T09:28:58.259Z,1.68
2023-01-18T09:31:28.600Z,1.66
2023-01-18T09:34:00.993Z,1.54
2023-01-18T09:36:41.467Z,1.72
2023-01-18T09:39:09.347Z,1.80
2023-01-18T09:41:38.931Z,2.07
2023-01-18T09:44:09.612Z,1.95
2023-01-18T09:46:42.065Z,2.01
2023-01-18T09:49:19.205Z,2.03
2023-01-18T09:51:57.478Z,2.27
2023-01-18T09:54:36.269Z,2.26
2023-01-18T09:57:14.034Z,2.41
2023-01-18T09:59:47.190Z,2.31
2023-01-18T10:02:23.677Z,2.36
2023-01-18T10:04:55.637Z,2.80
2023-01-18T10:07:26.905Z,2.75
2023-01-18T10:10:19.857Z,2.60
2023-01-18T10:12:55.807Z,2.63
2023-01-18T10:15:29.801Z,2.88
2023-01-18T10:18:00.831Z,2.38
2023-01-18T10:20:37.785Z,2.63
2023-01-18T10:23:13.423Z,2.84
2023-01-18T10:25:47.135Z,2.90
2023-01-18T10:28:28.437Z,3.04
2023-01-18T10:31:03.831Z,3.18
2023-01-18T10:33:37.347Z,3.05
2023-01-18T10:36:12.147Z,2.91
2023-01-18T10:38:41.815Z,2.93
2023-01-18T10:41:18.184Z,3.36
2023-01-18T10:43:45.810Z,3.38
2023-01-18T10:46:18.733Z,3.53
2023-01-18T10:48:49.825Z,3.77
2023-01-18T10:51:31.250Z,3.83
2023-01-18T10:53:59.545Z,3.95
2023-01-18T10:56:29.452Z,4.00
2023-01-18T10:58:59.993Z,3.65
2023-01-18T11:01:30.090Z,3.64
2023-01-18T11:04:05.826Z,3.55
2023-01-18T11:06:46.369Z,3.48
2023-01-18T11:09:40.091Z,3.55
2023-01-18T11:12:37.284Z,4.05
2023-01-18T11:15:23.687Z,3.68
2023-01-18T11:18:09.330Z,3.90
2023-01-18T11:20:46.200Z,3.89
2023-01-18T11:23:22.831Z,3.86
2023-01-18T11:25:56.475Z,4.53
2023-01-18T11:28:26.946Z,4.75
2023-01-18T11:30:57.801Z,5.13
2023-01-18T11:33:27.784Z,5.19
2023-01-18T11:35:59.795Z,4.71
2023-01-18T11:38:30.832Z,3.99
2023-01-18T11:41:07.630Z,5.08
2023-01-18T11:43:39.330Z,5.29
2023-01-18T11:46:23.641Z,5.13
2023-01-18T11:48:55.693Z,5.08
2023-01-18T11:51:32.592Z,5.94
2023-01-18T11:54:06.849Z,5.49
2023-01-18T11:56:40.727Z,6.40
2023-01-18T11:59:15.652Z,6.01
2023-01-18T12:01:56.552Z,5.55
2023-01-18T12:04:38.100Z,5.88
2023-01-18T12:07:19.553Z,6.23
2023-01-18T12:09:53.223Z,6.08
2023-01-18T12:12:37.205Z,5.89
2023-01-18T12:15:24.493Z,5.39
2023-01-18T12:18:13.074Z,5.98
2023-01-18T12:20:50.730Z,6.22
2023-01-18T12:23:45.953Z,6.16
2023-01-18T12:26:24.712Z,6.76
2023-01-18T12:29:14.191Z,7.69
2023-01-18T12:31:55.888Z,8.31
2023-01-18T12:34:27.303Z,7.45
2023-01-18T12:37:14.850Z,7.73
2023-01-18T12:39:55.731Z,6.95
2023-01-18T12:42:35.085Z,7.04
2023-01-18T12:45:15.891Z,6.44
2023-01-18T12:47:56.026Z,5.93
2023-01-18T12:50:28.048Z,6.60
2023-01-18T12:53:01.039Z,6.70
2023-01-18T12:55:34.211Z,7.16
2023-01-18T12:58:04.392Z,7.27
2023-01-18T13:00:37.315Z,7.52
2023-01-18T13:03:11.364Z,7.64
2023-01-18T13:05:51.059Z,6.68
2023-01-18T13:08:26.852Z,5.91
2023-01-18T13:11:02.776Z,5.25
2023-01-18T13:13:31.448Z,5.21
2023-01-18T13:16:10.251Z,5.46
2023-01-18T13:18:45.485Z,5.08
2023-01-18T13:21:21.469Z,5.56
2023-01-18T13:23:55.043Z,5.54
2023-01-18T13:26:29.560Z,5.44
2023-01-18T13:29:17.748Z,5.56
2023-01-18T13:31:46.021Z,5.13
2023-01-18T13:34:29.806Z,5.66
2023-01-18T13:37:13.426Z,6.04
2023-01-18T13:39:46.292Z,6.42
2023-01-18T13:42:37.981Z,5.90
2023-01-18T13:45:17.165Z,5.91
2023-01-18T13:47:58.212Z,6.07
2023-01-18T13:50:48.135Z,6.18
2023-01-18T13:53:31.638Z,6.83
2023-01-18T13:56:34.691Z,7.04
2023-01-18T13:59:17.693Z,7.15
2023-01-18T14:01:49.245Z,7.56
2023-01-18T14:04:25.214Z,7.93
2023-01-18T14:06:55.802Z,8.61
2023-01-18T14:09:36.232Z,7.57
2023-01-18T14:12:05.206Z,7.19
2023-01-18T14:14:36.190Z,6.50
2023-01-18T14:17:15.049Z,6.40
2023-01-18T14:20:04.156Z,5.87
2023-01-18T14:22:45.147Z,6.22
2023-01-18T14:25:32.456Z,5.61
2023-01-18T14:28:06.890Z,6.11
2023-01-18T14:30:38.076Z,6.28
2023-01-18T14:33:13.344Z,7.47
2023-01-18T14:35:51.893Z,8.45
2023-01-18T14:38:20.088Z,8.31
2023-01-18T14:40:50.222Z,7.79
2023-01-18T14:43:24.913Z,8.23
2023-01-18T14:45:58.650Z,9.58
2023-01-18T14:48:27.271Z,9.84
2023-01-18T14:50:56.597Z,9.34
2023-01-18T14:53:27.698Z,8.33
2023-01-18T14:56:10.598Z,7.92
2023-01-18T14:58:41.162Z,7.27
2023-01-18T15:01:27.572Z,6.09
2023-01-18T15:03:57.176Z,5.20
2023-01-18T15:06:33.313Z,5.26
2023-01-18T15:09:02.608Z,5.14
2023-01-18T15:11:30.611Z,5.17
2023-01-18T15:13:59.213Z,4.96
2023-01-18T15:16:31.017Z,4.89
2023-01-18T15:19:01.558Z,4.64
2023-01-18T15:21:31.859Z,4.35
2023-01-18T15:24:04.001Z,4.23
2023-01-18T15:26:37.332Z,4.50
2023-01-18T15:29:14.850Z,4.71
2023-01-18T15:31:53.552Z,4.70
2023-01-18T15:34:27.486Z,4.63
2023-01-18T15:36:56.799Z,4.62
2023-01-18T15:39:24.441Z,4.49
2023-01-18T15:41:53.182Z,4.42
2023-01-18T15:44:34.618Z,4.37
2023-01-18T15:47:15.467Z,4.29
2023-01-18T15:49:45.225Z,4.03
2023-01-18T15:52:12.872Z,3.80
2023-01-18T15:54:40.974Z,3.75
2023-01-18T15:57:14.321Z,3.60
2023-01-18T15:59:42.826Z,3.05
2023-01-18T16:02:22.938Z,2.88
2023-01-18T16:05:08.438Z,2.72
2023-01-18T16:07:39.086Z,2.61
2023-01-18T16:10:30.314Z,2.49
2023-01-18T16:13:30.612Z,2.40
2023-01-18T16:16:09.379Z,1.94
2023-01-18T16:18:38.356Z,1.77
2023-01-18T16:21:13.899Z,1.74
2023-01-18T16:23:46.320Z,1.61
2023-01-18T16:26:15.653Z,1.53
2023-01-18T16:28:43.360Z,1.43
2023-01-18T16:31:11.106Z,1.29
2023-01-18T16:33:40.831Z,1.27
2023-01-18T16:36:17.929Z,1.17
2023-01-18T16:38:46.122Z,0.92
2023-01-18T16:41:15.019Z,0.87
2023-01-18T16:43:44.890Z,0.74
2023-01-18T16:46:13.054Z,0.73
2023-01-18T16:48:42.073Z,0.66
2023-01-18T16:51:17.068Z,0.56
2023-01-18T16:53:44.697Z,0.48
2023-01-18T16:56:15.809Z,0.42
2023-01-18T16:58:43.614Z,0.15
2023-01-18T17:01:14.196Z,0.19
2023-01-18T17:03:43.258Z,0.13
2023-01-18T17:06:17.931Z,0.08
2023-01-18T17:08:46.457Z,0.03
2023-01-18T17:11:14.164Z,-0.04
2023-01-18T17:13:41.919Z,-0.14
2023-01-18T17:16:14.797Z,-0.23
2023-01-18T17:18:44.573Z,-0.28
2023-01-18T17:21:13.143Z,-0.30
2023-01-18T17:23:41.162Z,-0.34
2023-01-18T17:26:08.993Z,-0.45
2023-01-18T17:28:36.628Z,-0.30
2023-01-18T17:31:04.369Z,-0.45
2023-01-18T17:33:32.572Z,-0.50
2023-01-18T17:36:01.514Z,-0.43
2023-01-18T17:40:58.604Z,-0.51
2023-01-18T17:43:33.928Z,-0.59
2023-01-18T17:46:04.186Z,-0.72
2023-01-18T17:48:32.018Z,-0.70
2023-01-18T17:51:01.004Z,-0.62
2023-01-18T17:53:28.770Z,-0.60
2023-01-18T17:55:56.449Z,-0.68
2023-01-18T17:58:24.147Z,-0.73
2023-01-18T18:00:51.876Z,-0.75
2023-01-18T18:03:20.270Z,-0.82
2023-01-18T18:05:48.348Z,-0.87
2023-01-18T18:08:20.893Z,-1.03
2023-01-18T18:10:49.068Z,-0.89
2023-01-18T18:13:16.777Z,-0.91
2023-01-18T18:15:46.672Z,-0.94
2023-01-18T18:18:22.672Z,-1.00
2023-01-18T18:20:51.936Z,-0.96
2023-01-18T18:23:20.885Z,-0.91
2023-01-18T18:25:48.994Z,-0.88
2023-01-18T18:28:16.627Z,-0.81
2023-01-18T18:30:46.580Z,-0.83
2023-01-18T18:33:14.147Z,-0.85
2023-01-18T18:35:41.857Z,-0.88
2023-01-18T18:38:09.607Z,-0.91
2023-01-18T18:40:38.593Z,-0.88
2023-01-18T18:43:06.621Z,-0.90
2023-01-18T18:45:34.974Z,-1.01
2023-01-18T18:48:02.624Z,-0.93
2023-01-18T18:50:30.907Z,-0.91
2023-01-18T18:52:59.012Z,-1.02
2023-01-18T18:55:26.829Z,-0.97
2023-01-18T18:57:55.764Z,-0.76
2023-01-18T19:00:24.589Z,-0.79
2023-01-18T19:02:52.306Z,-0.88
2023-01-18T19:05:20.190Z,-0.72
2023-01-18T19:07:51.116Z,-0.63
2023-01-18T19:10:19.902Z,-0.64
2023-01-18T19:12:47.563Z,-0.58
2023-01-18T19:15:17.741Z,-0.45
2023-01-18T19:17:45.380Z,-0.44
2023-01-18T19:20:15.754Z,-0.41
2023-01-18T19:22:43.898Z,-0.48
2023-01-18T19:25:11.538Z,-0.57
2023-01-18T19:27:39.335Z,-0.51
2023-01-18T19:30:12.879Z,-0.49
2023-01-18T19:32:41.939Z,-0.73
2023-01-18T19:35:10.189Z,-0.83
2023-01-18T19:37:38.619Z,-0.78
2023-01-18T19:40:07.620Z,-0.75
2023-01-18T19:42:35.412Z,-0.91
2023-01-18T19:45:04.768Z,-0.98
2023-01-18T19:47:32.913Z,-1.03
2023-01-18T19:50:03.047Z,-1.07
2023-01-18T19:52:31.880Z,-1.07
2023-01-18T19:55:00.422Z,-1.01
2023-01-18T19:57:28.135Z,-0.96
2023-01-18T19:59:56.983Z,-0.98
2023-01-18T20:02:25.085Z,-0.96
2023-01-18T20:04:53.209Z,-0.72
2023-01-18T20:07:22.319Z,-0.74
2023-01-18T20:09:50.162Z,-0.58
2023-01-18T20:12:18.541Z,-0.55
2023-01-18T20:14:46.436Z,-0.51
2023-01-18T20:17:15.474Z,-0.43
2023-01-18T20:19:44.184Z,-0.35
2023-01-18T20:22:12.215Z,-0.40
2023-01-18T20:24:41.316Z,-0.33
2023-01-18T20:27:16.389Z,-0.41
2023-01-18T20:29:45.012Z,-0.55
2023-01-18T20:32:17.789Z,-0.52
2023-01-18T20:34:46.754Z,-0.58
2023-01-18T20:37:15.100Z,-0.51
2023-01-18T20:39:44.466Z,-0.54
2023-01-18T20:42:12.226Z,-0.46
2023-01-18T20:44:40.531Z,-0.45
2023-01-18T20:47:09.445Z,-0.34
2023-01-18T20:49:40.366Z,-0.28
2023-01-18T20:52:08.455Z,-0.41
2023-01-18T20:54:36.777Z,-0.68
2023-01-18T20:57:06.465Z,-0.47
2023-01-18T20:59:34.436Z,-0.20
2023-01-18T21:02:02.920Z,-0.07
2023-01-18T21:04:31.056Z,-0.10
2023-01-18T21:06:58.915Z,-0.15
2023-01-18T21:09:27.024Z,-0.07
2023-01-18T21:11:54.663Z,0.00
2023-01-18T21:14:23.708Z,-0.20
2023-01-18T21:16:51.294Z,0.00
2023-01-18T21:19:18.858Z,0.10
2023-01-18T21:21:46.456Z,0.02
2023-01-18T21:24:14.045Z,0.26
2023-01-18T21:26:41.685Z,0.26
2023-01-18T21:29:09.278Z,0.17
2023-01-18T21:31:40.151Z,0.04
2023-01-18T21:34:08.538Z,-0.03
2023-01-18T21:36:36.175Z,0.19
2023-01-18T21:39:03.836Z,0.36
2023-01-18T21:41:49.167Z,0.08
2023-01-18T21:44:34.979Z,-0.27
2023-01-18T21:47:04.060Z,0.04
2023-01-18T21:50:16.062Z,0.13
2023-01-18T21:52:56.411Z,0.15
2023-01-18T21:55:24.115Z,-0.03
2023-01-18T21:58:05.650Z,0.25
2023-01-18T22:00:33.711Z,0.34
2023-01-18T22:03:02.644Z,0.20
2023-01-18T22:05:30.219Z,-0.13
2023-01-18T22:07:58.371Z,0.13
2023-01-18T22:10:51.511Z,0.12
2023-01-18T22:13:19.286Z,0.00
2023-01-18T22:15:47.015Z,-0.21
2023-01-18T22:18:15.917Z,0.11
2023-01-18T22:20:43.621Z,0.14
2023-01-18T22:23:11.860Z,0.04
2023-01-18T22:25:39.587Z,0.07
2023-01-18T22:28:07.158Z,-0.02
2023-01-18T22:30:34.736Z,-0.20
2023-01-18T22:33:02.289Z,-0.35
2023-01-18T22:35:32.606Z,-0.46
2023-01-18T22:38:00.450Z,-0.41
2023-01-18T22:40:28.232Z,-0.52
2023-01-18T22:42:56.864Z,-0.42
2023-01-18T22:45:24.615Z,-0.48
2023-01-18T22:47:52.179Z,-0.80
2023-01-18T22:50:19.961Z,-0.58
2023-01-18T22:52:48.816Z,-0.52
2023-01-18T22:55:16.619Z,-0.55
2023-01-18T22:57:44.186Z,-0.89
2023-01-18T23:00:12.942Z,-0.73
2023-01-18T23:02:40.523Z,-0.62
2023-01-18T23:05:08.802Z,-0.66
2023-01-18T23:07:36.418Z,-0.65
2023-01-18T23:10:05.661Z,-0.51
2023-01-18T23:12:33.265Z,-0.50
2023-01-18T23:15:18.420Z,-0.52
2023-01-18T23:17:46.021Z,-0.49
2023-01-18T23:20:15.384Z,-0.50
2023-01-18T23:22:44.583Z,-0.40
2023-01-18T23:25:13.570Z,-0.43
2023-01-18T23:27:41.370Z,-0.48
2023-01-18T23:30:10.334Z,-0.51
2023-01-18T23:32:38.003Z,-0.48
2023-01-18T23:35:07.105Z,-0.66
2023-01-18T23:37:34.663Z,-0.64
2023-01-18T23:40:19.619Z,-0.77
2023-01-18T23:43:06.485Z,-0.72
2023-01-18T23:45:51.574Z,-0.96
2023-01-18T23:48:39.590Z,-0.86
2023-01-18T23:51:27.239Z,-0.89
2023-01-18T23:54:12.963Z,-0.91
2023-01-18T23:56:40.559Z,-0.96
2023-01-18T23:59:09.959Z,-0.89
